Main page
METAR-TAF:

METAR-TAF

Airports :

Glasgow Prestwick Airport

Glasgow-Prestwick, Scotland

latitude: 55-30N, longitude: 004-35W, elevation: 20 m

Current weather observation

The report was made 22 minutes ago, at 13:20 UTC
Wind 10 kt from the North
Temperature 22°C
Humidity 53%
Pressure 1023 hPa
Visibility 10 km or more
Few clouds at a height of 2000 ft

METAR: EGPK 241320Z 35010KT 9999 FEW020 22/12 Q1023

Time: 14:42 (13:42 UTC)

Forecast

The report was made 2 hours and 40 minutes ago, at 11:02 UTC
Forecast valid from 24 at 12 UTC to 25 at 12 UTC
Wind 8 kt from the North/Northeast
Visibility 10 km or more
no clouds below 1500 m and no cumulonimbus

TAF: EGPK 241102Z 2412/2512 03008KT CAVOK

Weather observations and forecasts of more than 4000 airports (METAR and TAF reports).

The available stations are represented by yellow and red dots on the map.

Hover mouse over dot to see the name of the station.

Then click to see weather observations and forecasts.

To change the map : click on the green buttons with a black cross to zoom in, on the green button with a dash to zoom out, or on the green arrows for adjacent maps.


METAR-TAF: